Time;durP1;ratioP1;P1;durP2;ratioP2;P2;SDS_P1;SDS_P2;PMS_P1;PMS_P2;Temp;Humidity;BMP_temperature;BMP_pressure;BME280_temperature;BME280_humidity;BME280_pressure;Samples;Min_cycle;Max_cycle;Signal;HPM_P1;HPM_P2
2022/02/03 00:00:39;;;;;;;1999.90;999.90;;;;;;;-2.36;59.44;101601.16;4976125;28;101481;-70
2022/02/03 00:03:14;;;;;;;1999.90;999.90;;;;;;;-2.38;59.62;101607.03;4957517;28;99210;-69
2022/02/03 00:05:49;;;;;;;1999.90;999.90;;;;;;;-2.39;60.09;101595.69;4974816;28;97537;-69
2022/02/03 00:08:32;;;;;;;1999.90;999.90;;;;;;;-2.38;59.50;101596.63;4958723;28;96980;-68
2022/02/03 00:11:23;;;;;;;1999.90;999.90;;;;;;;-2.39;59.60;101602.59;4958224;28;98855;-69
2022/02/03 00:16:57;;;;;;;1999.90;999.90;;;;;;;-2.41;59.54;101607.69;4960441;28;96851;-71
2022/02/03 00:22:18;;;;;;;1999.90;999.90;;;;;;;-2.41;59.76;101610.28;4975252;28;100374;-68
2022/02/03 00:25:02;;;;;;;1999.90;999.90;;;;;;;-2.44;60.07;101612.63;4958764;28;98703;-70
2022/02/03 00:27:52;;;;;;;1999.90;999.90;;;;;;;-2.43;59.92;101606.63;4960225;28;98990;-69
2022/02/03 00:30:23;;;;;;;1999.90;999.90;;;;;;;-2.45;60.07;101608.19;4960989;28;97978;-69
2022/02/03 00:33:09;;;;;;;1999.90;999.90;;;;;;;-2.43;60.25;101606.63;4959622;28;100566;-68
2022/02/03 00:35:52;;;;;;;1999.90;999.90;;;;;;;-2.42;59.86;101616.28;4960513;28;99207;-68
2022/02/03 00:38:43;;;;;;;1999.90;999.90;;;;;;;-2.42;59.44;101608.47;4958259;28;98878;-69
2022/02/03 00:49:41;;;;;;;1999.90;999.90;;;;;;;-2.42;59.66;101625.78;4959142;28;98377;-72
2022/02/03 00:52:10;;;;;;;1999.90;999.90;;;;;;;-2.40;59.46;101619.91;4954322;28;97890;-71
2022/02/03 00:54:38;;;;;;;1999.90;999.90;;;;;;;-2.41;60.38;101618.09;4961347;28;98102;-71
2022/02/03 00:57:09;;;;;;;1999.90;999.90;;;;;;;-2.43;59.84;101613.53;4974441;28;99557;-72
2022/02/03 00:59:38;;;;;;;1999.90;999.90;;;;;;;-2.41;60.29;101622.38;4962493;28;97404;-70
2022/02/03 01:02:07;;;;;;;1999.90;999.90;;;;;;;-2.42;59.84;101625.78;4972763;28;98904;-70
2022/02/03 01:04:40;;;;;;;1999.90;999.90;;;;;;;-2.42;60.12;101629.31;4969339;28;99097;-71
2022/02/03 01:07:09;;;;;;;1999.90;999.90;;;;;;;-2.42;60.11;101641.44;4983900;28;99328;-71
2022/02/03 01:09:43;;;;;;;1999.90;999.90;;;;;;;-2.45;59.68;101634.25;4969625;28;98857;-71
2022/02/03 01:12:18;;;;;;;1999.90;999.90;;;;;;;-2.46;60.13;101635.03;4969050;28;98015;-73
2022/02/03 01:14:53;;;;;;;1999.90;999.90;;;;;;;-2.47;59.58;101643.63;4959798;28;98070;-69
2022/02/03 01:17:33;;;;;;;1999.90;999.90;;;;;;;-2.46;60.50;101632.44;4961787;28;97648;-70
2022/02/03 01:20:38;;;;;;;1999.90;999.90;;;;;;;-2.47;60.36;101630.59;4940716;28;97220;-70
2022/02/03 01:34:53;;;;;;;1999.90;999.90;;;;;;;-2.54;60.08;101614.28;4960257;28;97761;-69
2022/02/03 01:37:37;;;;;;;1999.90;999.90;;;;;;;-2.56;59.95;101616.78;4961874;28;97708;-69
2022/02/03 01:43:21;;;;;;;1999.90;999.90;;;;;;;-2.57;60.30;101601.94;4955891;28;97660;-69
2022/02/03 01:45:52;;;;;;;1999.90;999.90;;;;;;;-2.59;60.20;101590.47;4959334;28;96911;-69
2022/02/03 01:48:35;;;;;;;1999.90;999.90;;;;;;;-2.62;60.29;101590.22;4959356;28;99280;-70
2022/02/03 01:53:51;;;;;;;1999.90;999.90;;;;;;;-2.63;60.23;101587.44;4953488;28;98197;-69
2022/02/03 01:56:20;;;;;;;1999.90;999.90;;;;;;;-2.64;60.54;101586.56;4958084;28;98966;-69
2022/02/03 01:58:50;;;;;;;1999.90;999.90;;;;;;;-2.64;60.59;101581.34;4951741;28;99448;-69
2022/02/03 02:01:23;;;;;;;1999.90;999.90;;;;;;;-2.68;60.59;101587.06;4953924;28;97981;-69
2022/02/03 02:03:58;;;;;;;1999.90;999.90;;;;;;;-2.70;60.73;101572.06;4958447;28;96838;-68
2022/02/03 02:06:37;;;;;;;1999.90;999.90;;;;;;;-2.71;60.65;101579.00;4958549;28;97767;-67
2022/02/03 02:09:08;;;;;;;1999.90;999.90;;;;;;;-2.67;61.04;101573.25;4958731;28;97621;-69
2022/02/03 02:11:58;;;;;;;1999.90;999.90;;;;;;;-2.64;60.21;101565.72;4959935;28;98816;-69
2022/02/03 02:20:08;;;;;;;1999.90;999.90;;;;;;;-2.58;60.40;101550.59;4941590;28;97691;-70
2022/02/03 02:37:16;;;;;;;1999.90;999.90;;;;;;;-2.43;60.02;101520.63;4961479;28;96908;-69
2022/02/03 02:40:28;;;;;;;1999.90;999.90;;;;;;;-2.44;59.89;101521.44;4959652;28;97287;-69
2022/02/03 02:43:01;;;;;;;1999.90;999.90;;;;;;;-2.38;59.83;101511.50;4975401;28;99161;-69
2022/02/03 02:45:41;;;;;;;1999.90;999.90;;;;;;;-2.35;59.61;101503.97;4960583;28;98307;-69
2022/02/03 02:48:20;;;;;;;1999.90;999.90;;;;;;;-2.36;60.17;101499.50;4962404;28;99269;-69
2022/02/03 02:50:57;;;;;;;1999.90;999.90;;;;;;;-2.35;60.41;101488.31;4961441;28;97343;-70
2022/02/03 02:53:37;;;;;;;1999.90;999.90;;;;;;;-2.31;60.48;101487.78;4961706;28;97735;-68
2022/02/03 02:56:18;;;;;;;1999.90;999.90;;;;;;;-2.26;59.48;101485.56;4961698;28;101615;-69
2022/02/03 02:59:20;;;;;;;1999.90;999.90;;;;;;;-2.23;60.35;101486.72;4960914;28;96774;-69
2022/02/03 03:29:57;;;;;;;1999.90;999.90;;;;;;;-2.06;60.16;101465.63;4959074;28;97639;-71
2022/02/03 03:32:38;;;;;;;1999.90;999.90;;;;;;;-2.06;59.85;101457.78;4958907;28;97341;-70
2022/02/03 03:35:27;;;;;;;1999.90;999.90;;;;;;;-2.05;59.20;101454.38;4958346;28;98878;-71
2022/02/03 03:37:58;;;;;;;1999.90;999.90;;;;;;;-2.06;59.78;101452.56;4959591;28;97555;-71
2022/02/03 03:40:28;;;;;;;1999.90;999.90;;;;;;;-2.04;59.31;101450.09;4965002;28;97597;-70
2022/02/03 03:43:03;;;;;;;1999.90;999.90;;;;;;;-2.05;59.95;101448.25;4963650;28;97199;-71
2022/02/03 03:45:32;;;;;;;1999.90;999.90;;;;;;;-2.05;59.39;101454.38;4958239;28;97265;-70
2022/02/03 03:48:09;;;;;;;1999.90;999.90;;;;;;;-2.03;59.76;101454.50;4959044;28;98040;-71
2022/02/03 03:50:39;;;;;;;1999.90;999.90;;;;;;;-2.02;59.79;101445.91;4958561;28;99383;-70
2022/02/03 03:53:12;;;;;;;1999.90;999.90;;;;;;;-2.00;59.53;101446.94;4959742;28;98768;-70
2022/02/03 03:55:49;;;;;;;1999.90;999.90;;;;;;;-2.00;59.64;101441.72;4958735;28;100226;-70
2022/02/03 03:58:39;;;;;;;1999.90;999.90;;;;;;;-1.97;59.71;101442.91;4957996;28;98741;-71
2022/02/03 04:30:45;;;;;;;1999.90;999.90;;;;;;;-1.80;59.45;101422.47;4924834;28;97413;-70
2022/02/03 04:33:45;;;;;;;1999.90;999.90;;;;;;;-1.81;59.50;101424.16;4961775;28;98866;-70
2022/02/03 04:39:31;;;;;;;1999.90;999.90;;;;;;;-1.77;59.84;101431.44;4960448;28;98600;-70
2022/02/03 04:42:33;;;;;;;1999.90;999.90;;;;;;;-1.77;59.72;101420.09;4960776;28;99315;-71
2022/02/03 04:45:44;;;;;;;1999.90;999.90;;;;;;;-1.77;59.86;101426.22;4960353;28;97670;-70
2022/02/03 04:51:33;;;;;;;1999.90;999.90;;;;;;;-1.72;59.38;101405.75;4953857;28;98300;-71
2022/02/03 04:57:29;;;;;;;1999.90;999.90;;;;;;;-1.71;59.20;101412.78;4961236;28;98727;-73
2022/02/03 05:00:29;;;;;;;1999.90;999.90;;;;;;;-1.70;59.90;101411.97;4974027;28;101085;-71
2022/02/03 05:03:39;;;;;;;1999.90;999.90;;;;;;;-1.74;59.24;101405.59;4954755;28;97847;-70
2022/02/03 05:06:21;;;;;;;1999.90;999.90;;;;;;;-1.75;59.71;101402.88;4954326;28;98757;-71
2022/02/03 05:09:04;;;;;;;1999.90;999.90;;;;;;;-1.74;59.70;101399.50;4958317;28;97078;-71
2022/02/03 05:12:05;;;;;;;1999.90;999.90;;;;;;;-1.74;59.80;101395.16;4957425;28;97581;-71
2022/02/03 05:15:09;;;;;;;1999.90;999.90;;;;;;;-1.69;60.02;101388.66;4956519;28;96943;-71
2022/02/03 05:21:13;;;;;;;1999.90;999.90;;;;;;;-1.64;60.26;101389.00;4919865;28;99420;-71
2022/02/03 05:24:23;;;;;;;1999.90;999.90;;;;;;;-1.61;60.05;101391.81;4960094;28;100743;-70
2022/02/03 05:33:21;;;;;;;1999.90;999.90;;;;;;;-1.56;59.90;101385.28;4962579;28;100626;-70
2022/02/03 05:42:20;;;;;;;1999.90;999.90;;;;;;;-1.49;59.73;101380.69;4960883;28;97777;-70
2022/02/03 05:45:51;;;;;;;1999.90;999.90;;;;;;;-1.49;60.26;101374.53;4959043;28;99097;-70
2022/02/03 06:02:45;;;;;;;1999.90;999.90;;;;;;;-1.34;59.76;101350.53;4954440;28;96928;-69
2022/02/03 06:05:18;;;;;;;1999.90;999.90;;;;;;;-1.34;59.77;101341.81;4948585;28;97178;-69
2022/02/03 06:07:56;;;;;;;1999.90;999.90;;;;;;;-1.32;59.85;101340.25;4954652;28;100370;-70
2022/02/03 06:13:13;;;;;;;1999.90;999.90;;;;;;;-1.27;59.98;101338.88;4954736;28;99335;-69
2022/02/03 06:15:48;;;;;;;1999.90;999.90;;;;;;;-1.25;59.86;101332.97;4951618;28;98501;-69
2022/02/03 06:23:55;;;;;;;1999.90;999.90;;;;;;;-1.18;60.05;101331.75;4960138;28;98778;-70
2022/02/03 06:29:13;;;;;;;1999.90;999.90;;;;;;;-1.16;59.91;101322.34;4961413;28;98972;-69
2022/02/03 06:31:42;;;;;;;1999.90;999.90;;;;;;;-1.14;60.03;101331.19;4941546;28;100507;-70
2022/02/03 06:34:18;;;;;;;1999.90;999.90;;;;;;;-1.13;60.01;101327.78;4980495;28;96819;-68
2022/02/03 06:36:46;;;;;;;1999.90;999.90;;;;;;;-1.10;60.25;101333.22;4965354;28;97384;-71
2022/02/03 06:39:17;;;;;;;1999.90;999.90;;;;;;;-1.10;59.92;101328.00;4961472;28;98855;-68
2022/02/03 06:41:46;;;;;;;1999.90;999.90;;;;;;;-1.09;60.16;101325.53;4964883;28;99597;-69
2022/02/03 06:44:15;;;;;;;1999.90;999.90;;;;;;;-1.06;60.24;101332.69;4966069;28;96889;-69
2022/02/03 06:46:47;;;;;;;1999.90;999.90;;;;;;;-1.04;60.32;101318.03;4964859;28;97972;-69
2022/02/03 06:49:20;;;;;;;1999.90;999.90;;;;;;;-1.03;60.08;101323.38;4963359;28;98795;-69
2022/02/03 06:51:56;;;;;;;1999.90;999.90;;;;;;;-1.00;60.39;101320.09;4957184;28;97847;-68
2022/02/03 06:54:32;;;;;;;1999.90;999.90;;;;;;;-0.98;60.24;101315.91;4959917;28;97877;-68
2022/02/03 06:57:03;;;;;;;1999.90;999.90;;;;;;;-0.97;60.28;101321.22;4956724;28;97620;-69
2022/02/03 06:59:39;;;;;;;1999.90;999.90;;;;;;;-0.95;60.57;101317.03;4958010;28;98178;-71
2022/02/03 07:02:08;;;;;;;1999.90;999.90;;;;;;;-0.93;60.22;101318.06;4960420;28;99770;-70
2022/02/03 07:04:41;;;;;;;1999.90;999.90;;;;;;;-0.90;60.33;101318.28;4962704;28;97370;-69
2022/02/03 07:07:14;;;;;;;1999.90;999.90;;;;;;;-0.89;60.46;101304.44;4959641;28;97829;-69
2022/02/03 07:09:43;;;;;;;1999.90;999.90;;;;;;;-0.88;60.38;101308.84;4961217;28;98764;-68
2022/02/03 07:12:11;;;;;;;1999.90;999.90;;;;;;;-0.87;60.63;101308.03;4980021;28;99396;-71
2022/02/03 07:14:39;;;;;;;1999.90;999.90;;;;;;;-0.84;60.51;101302.16;4964500;28;96986;-69
2022/02/03 07:17:11;;;;;;;1999.90;999.90;;;;;;;-0.81;60.39;101299.75;4963376;28;97211;-69
2022/02/03 07:19:45;;;;;;;1999.90;999.90;;;;;;;-0.79;60.81;101292.94;4962515;28;97762;-69
2022/02/03 07:22:14;;;;;;;1999.90;999.90;;;;;;;-0.75;60.62;101294.09;4962728;28;98835;-70
2022/02/03 07:24:51;;;;;;;1999.90;999.90;;;;;;;-0.73;60.84;101290.81;4962250;28;97169;-70
2022/02/03 07:27:19;;;;;;;1999.90;999.90;;;;;;;-0.72;60.81;101287.38;4962746;28;99172;-69
2022/02/03 07:29:46;;;;;;;1999.90;999.90;;;;;;;-0.70;60.92;101285.78;4961913;28;100490;-70
2022/02/03 07:32:14;;;;;;;1999.90;999.90;;;;;;;-0.67;60.93;101279.88;4962318;28;98730;-70
2022/02/03 07:34:42;;;;;;;1999.90;999.90;;;;;;;-0.65;60.97;101271.38;4963248;28;99892;-70
2022/02/03 07:37:09;;;;;;;1999.90;999.90;;;;;;;-0.64;61.17;101270.56;4964104;28;96860;-70
2022/02/03 07:39:39;;;;;;;1999.90;999.90;;;;;;;-0.63;60.61;101269.78;4962123;28;98733;-70
2022/02/03 07:42:07;;;;;;;1999.90;999.90;;;;;;;-0.61;61.05;101276.00;4959420;28;101117;-70
2022/02/03 07:44:35;;;;;;;1999.90;999.90;;;;;;;-0.57;60.59;101259.75;4960254;28;100435;-70
2022/02/03 07:47:03;;;;;;;1999.90;999.90;;;;;;;-0.54;60.90;101261.72;4961837;28;98651;-69
2022/02/03 07:49:33;;;;;;;1999.90;999.90;;;;;;;-0.54;61.32;101257.41;4959611;28;100568;-70
2022/02/03 07:52:01;;;;;;;1999.90;999.90;;;;;;;-0.53;61.09;101260.88;4962555;28;97622;-69
2022/02/03 07:54:29;;;;;;;1999.90;999.90;;;;;;;-0.55;61.27;101247.72;4962132;28;98133;-70
2022/02/03 07:56:58;;;;;;;1999.90;999.90;;;;;;;-0.54;61.23;101244.31;4963423;28;97368;-70
2022/02/03 07:59:26;;;;;;;1999.90;999.90;;;;;;;-0.51;61.39;101246.22;4962150;28;98915;-69
2022/02/03 08:01:54;;;;;;;1999.90;999.90;;;;;;;-0.50;61.47;101243.72;4962513;28;100772;-70
2022/02/03 08:04:27;;;;;;;1999.90;999.90;;;;;;;-0.48;61.49;101236.91;4965408;28;96972;-70
2022/02/03 08:06:55;;;;;;;1999.90;999.90;;;;;;;-0.47;61.71;101230.91;4961518;28;98275;-70
2022/02/03 08:09:26;;;;;;;1999.90;999.90;;;;;;;-0.45;61.72;101225.78;4962975;28;97431;-70
2022/02/03 08:11:55;;;;;;;1999.90;999.90;;;;;;;-0.44;61.89;101223.25;4963145;28;98795;-70
2022/02/03 08:14:32;;;;;;;1999.90;999.90;;;;;;;-0.42;61.75;101218.13;4965580;28;96862;-70
2022/02/03 08:17:03;;;;;;;1999.90;999.90;;;;;;;-0.39;61.59;101215.78;4965795;28;96878;-69
2022/02/03 08:19:38;;;;;;;1999.90;999.90;;;;;;;-0.44;63.27;101212.81;4962901;28;97865;-70
2022/02/03 08:22:12;;;;;;;1999.90;999.90;;;;;;;-0.42;62.24;101213.81;4963098;28;99873;-70
2022/02/03 08:24:47;;;;;;;1999.90;999.90;;;;;;;-0.37;62.20;101215.06;4962633;28;97010;-69
2022/02/03 08:30:20;;;;;;;1999.90;999.90;;;;;;;-0.32;62.02;101213.66;4962630;28;98800;-71
2022/02/03 08:32:53;;;;;;;1999.90;999.90;;;;;;;-0.28;61.89;101218.31;4961997;28;97915;-70
2022/02/03 08:35:33;;;;;;;1999.90;999.90;;;;;;;-0.23;61.93;101224.78;4960572;28;97554;-71
2022/02/03 08:38:07;;;;;;;1999.90;999.90;;;;;;;-0.19;61.73;101216.34;4959785;28;98498;-70
2022/02/03 08:40:45;;;;;;;1999.90;999.90;;;;;;;-0.15;61.75;101218.41;4960363;28;100450;-70
2022/02/03 08:43:14;;;;;;;1999.90;999.90;;;;;;;-0.12;61.75;101213.38;4962174;28;98967;-70
2022/02/03 08:45:43;;;;;;;1999.90;999.90;;;;;;;-0.11;61.74;101217.81;4959986;28;97398;-70
2022/02/03 08:48:13;;;;;;;1999.90;999.90;;;;;;;-0.10;62.21;101213.50;4977311;28;96881;-70
2022/02/03 08:50:41;;;;;;;1999.90;999.90;;;;;;;-0.11;62.02;101209.97;4960026;28;97458;-70
2022/02/03 08:53:13;;;;;;;1999.90;999.90;;;;;;;-0.05;61.84;101214.72;4960347;28;99944;-69
2022/02/03 08:55:49;;;;;;;1999.90;999.90;;;;;;;-0.03;61.84;101211.41;4957915;28;97252;-70
2022/02/03 08:58:42;;;;;;;1999.90;999.90;;;;;;;-0.02;61.95;101215.84;4959731;28;97415;-69
2022/02/03 09:37:11;;;;;;;1999.90;999.90;;;;;;;0.31;62.22;101192.84;4959623;28;99200;-67
2022/02/03 09:40:01;;;;;;;1999.90;999.90;;;;;;;0.33;62.30;101186.00;4959086;28;97436;-68
2022/02/03 09:51:36;;;;;;;1999.90;999.90;;;;;;;0.34;63.86;101185.22;4957013;28;97356;-69
2022/02/03 09:59:47;;;;;;;1999.90;999.90;;;;;;;0.41;63.85;101182.22;4911220;28;97051;-70
2022/02/03 10:02:22;;;;;;;1999.90;999.90;;;;;;;0.46;62.83;101183.41;4959656;28;100500;-69
2022/02/03 10:04:53;;;;;;;1999.90;999.90;;;;;;;0.52;62.24;101173.38;4958291;28;97681;-70
2022/02/03 10:07:25;;;;;;;1999.90;999.90;;;;;;;0.58;62.22;101171.13;4964196;28;97660;-69
2022/02/03 10:09:53;;;;;;;1999.90;999.90;;;;;;;0.63;63.11;101170.66;4962783;28;97538;-70
2022/02/03 10:12:30;;;;;;;1999.90;999.90;;;;;;;0.68;63.25;101178.81;4962112;28;97530;-69
2022/02/03 10:14:58;;;;;;;1999.90;999.90;;;;;;;0.71;62.55;101179.94;4956972;28;98051;-70
2022/02/03 10:17:36;;;;;;;1999.90;999.90;;;;;;;0.78;62.40;101165.50;4955116;28;98164;-70
2022/02/03 10:20:09;;;;;;;1999.90;999.90;;;;;;;0.80;62.96;101169.16;4959178;28;96990;-70
2022/02/03 10:22:46;;;;;;;1999.90;999.90;;;;;;;0.84;61.98;101155.44;4962489;28;98554;-70
2022/02/03 10:25:18;;;;;;;1999.90;999.90;;;;;;;0.86;62.92;101154.75;4958948;28;97604;-70
2022/02/03 10:27:52;;;;;;;1999.90;999.90;;;;;;;0.91;62.20;101147.19;4960622;28;99244;-69
2022/02/03 10:30:25;;;;;;;1999.90;999.90;;;;;;;0.95;62.52;101146.59;4960785;28;99699;-70
2022/02/03 10:32:54;;;;;;;1999.90;999.90;;;;;;;1.00;62.46;101145.16;4960446;28;97011;-70
2022/02/03 10:35:32;;;;;;;1999.90;999.90;;;;;;;1.04;62.42;101145.47;4959525;28;98222;-70
2022/02/03 10:38:18;;;;;;;1999.90;999.90;;;;;;;1.07;62.46;101136.88;4958011;28;97647;-70
2022/02/03 10:41:09;;;;;;;1999.90;999.90;;;;;;;1.09;62.50;101135.28;4956939;28;97179;-70
2022/02/03 10:49:38;;;;;;;1999.90;999.90;;;;;;;1.20;61.97;101135.16;5134330;27;97369;-69
2022/02/03 10:52:33;;;;;;;1999.90;999.90;;;;;;;1.26;62.49;101134.66;5113933;27;96874;-70
2022/02/03 10:55:26;;;;;;;1999.90;999.90;;;;;;;1.27;62.17;101133.81;5096423;27;97694;-70
2022/02/03 11:01:15;;;;;;;1999.90;999.90;;;;;;;1.37;62.52;101125.75;5081562;27;101150;-70
2022/02/03 11:06:37;;;;;;;1999.90;999.90;;;;;;;1.39;62.43;101123.22;5099210;27;99559;-70
2022/02/03 11:09:13;;;;;;;1999.90;999.90;;;;;;;1.41;63.06;101117.28;5099131;27;100928;-70
2022/02/03 11:11:45;;;;;;;1999.90;999.90;;;;;;;1.45;61.87;101110.50;5112627;27;97535;-70
2022/02/03 11:14:15;;;;;;;1999.90;999.90;;;;;;;1.50;62.15;101107.38;5114343;27;97386;-69
2022/02/03 11:16:43;;;;;;;1999.90;999.90;;;;;;;1.52;62.04;101104.84;5095682;27;98352;-71
2022/02/03 11:19:14;;;;;;;1999.90;999.90;;;;;;;1.56;61.97;101097.22;5114228;27;99243;-69
2022/02/03 11:21:48;;;;;;;1999.90;999.90;;;;;;;1.57;62.35;101099.06;5094865;27;97122;-69
2022/02/03 11:24:22;;;;;;;1999.90;999.90;;;;;;;1.58;63.12;101097.34;5115391;27;96947;-70
2022/02/03 11:27:06;;;;;;;1999.90;999.90;;;;;;;1.60;63.00;101101.88;5111700;27;97222;-69
2022/02/03 11:44:36;;;;;;;1999.90;999.90;;;;;;;1.77;62.79;101079.28;4991680;28;99698;-69
2022/02/03 11:47:38;;;;;;;1999.90;999.90;;;;;;;1.77;63.47;101076.66;4988763;28;99066;-69
2022/02/03 11:50:35;;;;;;;1999.90;999.90;;;;;;;1.80;62.89;101079.47;5026438;27;98344;-69
2022/02/03 11:53:33;;;;;;;1999.90;999.90;;;;;;;1.85;62.50;101071.06;5033545;27;97923;-70
2022/02/03 11:59:15;;;;;;;1999.90;999.90;;;;;;;1.95;62.71;101055.06;5022162;27;96848;-70
2022/02/03 12:01:57;;;;;;;1999.90;999.90;;;;;;;1.98;63.22;101060.50;5032507;27;96969;-70
2022/02/03 12:04:57;;;;;;;1999.90;999.90;;;;;;;1.99;62.74;101043.94;5029716;27;97986;-70
2022/02/03 12:08:02;;;;;;;1999.90;999.90;;;;;;;2.00;62.40;101037.88;5017033;27;99425;-69
2022/02/03 12:10:50;;;;;;;1999.90;999.90;;;;;;;2.03;63.35;101024.97;5029492;27;97917;-70
2022/02/03 12:16:19;;;;;;;1999.90;999.90;;;;;;;2.12;62.83;101019.38;5001456;27;98450;-70
2022/02/03 12:19:08;;;;;;;1999.90;999.90;;;;;;;2.17;62.31;101015.28;5033448;27;98617;-69
2022/02/03 12:21:43;;;;;;;1999.90;999.90;;;;;;;2.17;62.23;101013.56;5031136;27;98746;-70
2022/02/03 12:24:20;;;;;;;1999.90;999.90;;;;;;;2.19;63.03;101006.69;5031451;27;98728;-69
2022/02/03 12:26:55;;;;;;;1999.90;999.90;;;;;;;2.22;62.99;100994.56;5019345;27;99699;-69
2022/02/03 12:29:29;;;;;;;1999.90;999.90;;;;;;;2.26;62.44;100991.28;5028552;27;98430;-69
2022/02/03 12:32:16;;;;;;;1999.90;999.90;;;;;;;2.33;62.65;100993.47;5028419;27;97410;-70
2022/02/03 12:38:12;;;;;;;1999.90;999.90;;;;;;;2.42;62.27;100997.50;5032333;27;97877;-69
2022/02/03 12:40:53;;;;;;;1999.90;999.90;;;;;;;2.45;61.96;101002.94;5031708;27;98798;-70
2022/02/03 12:43:32;;;;;;;1999.90;999.90;;;;;;;2.47;62.48;101006.56;5038234;27;96816;-71
2022/02/03 12:46:02;;;;;;;1999.90;999.90;;;;;;;2.52;62.07;101009.44;5022151;27;97534;-70
2022/02/03 12:48:34;;;;;;;1999.90;999.90;;;;;;;2.51;62.03;101008.50;5018209;27;99170;-70
2022/02/03 12:51:02;;;;;;;1999.90;999.90;;;;;;;2.53;62.09;101003.38;5013252;27;102436;-71
2022/02/03 12:53:32;;;;;;;1999.90;999.90;;;;;;;2.56;62.34;101001.81;5020645;27;97327;-69
2022/02/03 12:56:05;;;;;;;1999.90;999.90;;;;;;;2.57;62.42;100995.75;5020570;27;97360;-71
2022/02/03 12:58:37;;;;;;;1999.90;999.90;;;;;;;2.62;61.79;100999.53;5019349;27;97700;-70
2022/02/03 13:01:10;;;;;;;1999.90;999.90;;;;;;;2.61;61.92;100989.84;5020705;27;100008;-68
2022/02/03 13:03:40;;;;;;;1999.90;999.90;;;;;;;2.64;61.69;100982.13;5039956;27;97322;-70
2022/02/03 13:06:12;;;;;;;1999.90;999.90;;;;;;;2.66;61.83;100975.25;5024546;27;98894;-70
2022/02/03 13:08:42;;;;;;;1999.90;999.90;;;;;;;2.70;61.88;100971.06;5020264;27;101891;-70
2022/02/03 13:11:21;;;;;;;1999.90;999.90;;;;;;;2.72;61.81;100969.41;5005260;27;97731;-70
2022/02/03 13:14:03;;;;;;;1999.90;999.90;;;;;;;2.73;61.58;100959.00;5024289;27;96829;-69
2022/02/03 13:16:31;;;;;;;1999.90;999.90;;;;;;;2.76;62.25;100959.19;5024476;27;96983;-69
2022/02/03 13:19:06;;;;;;;1999.90;999.90;;;;;;;2.79;62.01;100950.53;5022679;27;99800;-70
2022/02/03 13:21:47;;;;;;;1999.90;999.90;;;;;;;2.80;61.53;100953.25;5022235;27;98644;-70
2022/02/03 13:24:47;;;;;;;1999.90;999.90;;;;;;;2.82;62.17;100955.97;5022539;27;98474;-70
2022/02/03 13:27:20;;;;;;;1999.90;999.90;;;;;;;2.83;62.06;100965.66;5020702;27;98575;-70
2022/02/03 13:30:00;;;;;;;1999.90;999.90;;;;;;;2.84;61.67;100964.81;5023003;27;101060;-71
2022/02/03 13:32:34;;;;;;;1999.90;999.90;;;;;;;2.81;62.32;100970.84;5022890;27;97586;-70
2022/02/03 13:35:19;;;;;;;1999.90;999.90;;;;;;;2.79;62.43;100961.97;5021820;27;96777;-71
2022/02/03 13:37:50;;;;;;;1999.90;999.90;;;;;;;2.80;62.14;100955.88;5019894;27;97990;-70
2022/02/03 13:40:20;;;;;;;1999.90;999.90;;;;;;;2.82;62.15;100948.09;5020738;27;98834;-69
2022/02/03 13:42:59;;;;;;;1999.90;999.90;;;;;;;2.82;62.03;100948.09;5002181;27;99454;-70
2022/02/03 13:45:28;;;;;;;1999.90;999.90;;;;;;;2.83;62.21;100948.19;5019517;27;97318;-69
2022/02/03 13:47:55;;;;;;;1999.90;999.90;;;;;;;2.84;62.13;100949.97;5020835;27;99151;-70
2022/02/03 13:50:26;;;;;;;1999.90;999.90;;;;;;;2.87;61.88;100949.25;5021030;27;97667;-70
2022/02/03 13:53:00;;;;;;;1999.90;999.90;;;;;;;2.87;61.85;100949.25;5002514;27;100529;-70
2022/02/03 14:15:48;;;;;;;1999.90;999.90;;;;;;;2.85;62.23;100925.53;5017968;27;96952;-68
2022/02/03 14:18:28;;;;;;;1999.90;999.90;;;;;;;2.87;62.17;100925.59;5019705;27;96824;-71
2022/02/03 14:21:02;;;;;;;1999.90;999.90;;;;;;;2.86;62.11;100919.44;5023465;27;97712;-69
2022/02/03 14:29:06;;;;;;;1999.90;999.90;;;;;;;2.86;62.32;100910.63;5005686;27;98791;-70
2022/02/03 14:31:36;;;;;;;1999.90;999.90;;;;;;;2.87;62.63;100901.94;5007950;27;98270;-71
2022/02/03 14:34:08;;;;;;;1999.90;999.90;;;;;;;2.86;62.39;100901.03;5011251;27;99827;-71
2022/02/03 14:36:36;;;;;;;1999.90;999.90;;;;;;;2.87;62.41;100896.69;5016634;27;97739;-70
2022/02/03 14:39:13;;;;;;;1999.90;999.90;;;;;;;2.88;62.26;100891.50;5001961;27;96864;-70
2022/02/03 14:41:45;;;;;;;1999.90;999.90;;;;;;;2.86;62.72;100876.47;5011058;27;98167;-70
2022/02/03 14:44:14;;;;;;;1999.90;999.90;;;;;;;2.88;62.50;100873.13;5013738;27;98043;-69
2022/02/03 14:46:44;;;;;;;1999.90;999.90;;;;;;;2.87;62.16;100871.31;5019251;27;97193;-70
2022/02/03 14:49:12;;;;;;;1999.90;999.90;;;;;;;2.87;62.70;100871.31;5002540;27;96758;-71
2022/02/03 14:51:50;;;;;;;1999.90;999.90;;;;;;;2.86;62.50;100868.59;5016283;27;99446;-69
2022/02/03 14:59:50;;;;;;;1999.90;999.90;;;;;;;2.84;62.26;100864.97;5012869;27;97268;-70
2022/02/03 15:02:19;;;;;;;1999.90;999.90;;;;;;;2.84;62.73;100872.84;5005149;27;98201;-68
2022/02/03 15:04:53;;;;;;;1999.90;999.90;;;;;;;2.84;62.21;100883.38;5014557;27;98013;-70
2022/02/03 15:07:24;;;;;;;1999.90;999.90;;;;;;;2.83;62.46;100878.94;5011424;27;99115;-69
2022/02/03 15:10:15;;;;;;;1999.90;999.90;;;;;;;2.82;62.29;100878.03;5010093;27;96902;-70
2022/02/03 15:12:57;;;;;;;1999.90;999.90;;;;;;;2.83;62.73;100871.97;5003410;27;98682;-68
2022/02/03 15:15:25;;;;;;;1999.90;999.90;;;;;;;2.83;62.43;100874.59;5018010;27;97878;-68
2022/02/03 15:17:54;;;;;;;1999.90;999.90;;;;;;;2.83;62.94;100871.06;5015958;27;98403;-68
2022/02/03 15:20:22;;;;;;;1999.90;999.90;;;;;;;2.83;62.57;100857.91;5015323;27;98529;-70
2022/02/03 15:22:50;;;;;;;1999.90;999.90;;;;;;;2.82;62.48;100851.75;5016811;27;99897;-71
2022/02/03 15:25:18;;;;;;;1999.90;999.90;;;;;;;2.81;62.77;100843.78;5017131;27;100620;-71
2022/02/03 15:27:45;;;;;;;1999.90;999.90;;;;;;;2.80;62.97;100850.78;5017759;27;97310;-70
2022/02/03 15:30:15;;;;;;;1999.90;999.90;;;;;;;2.79;62.69;100842.81;4995074;27;97162;-69
2022/02/03 15:32:45;;;;;;;1999.90;999.90;;;;;;;2.77;62.73;100837.47;5022016;27;98787;-71
2022/02/03 15:35:21;;;;;;;1999.90;999.90;;;;;;;2.77;62.64;100841.81;5016067;27;97836;-69
2022/02/03 15:37:50;;;;;;;1999.90;999.90;;;;;;;2.74;62.98;100841.66;5015307;27;97202;-68
2022/02/03 15:40:21;;;;;;;1999.90;999.90;;;;;;;2.72;62.78;100841.59;5017043;27;99445;-68
2022/02/03 15:43:00;;;;;;;1999.90;999.90;;;;;;;2.71;63.09;100838.88;5017676;27;96961;-70
2022/02/03 15:45:33;;;;;;;1999.90;999.90;;;;;;;2.70;63.25;100837.06;5005862;27;100879;-68
2022/02/03 15:48:06;;;;;;;1999.90;999.90;;;;;;;2.71;63.48;100838.88;5015851;27;98045;-69
2022/02/03 15:50:57;;;;;;;1999.90;999.90;;;;;;;2.70;63.01;100835.34;5013208;27;96949;-69
2022/02/03 16:01:54;;;;;;;1999.90;999.90;;;;;;;2.69;62.99;100806.38;5016143;27;98114;-69
2022/02/03 16:18:09;;;;;;;1999.90;999.90;;;;;;;2.60;63.78;100805.91;5003604;27;98886;-69
2022/02/03 16:20:42;;;;;;;1999.90;999.90;;;;;;;2.59;63.45;100804.06;5020896;27;97601;-69
2022/02/03 16:23:31;;;;;;;1999.90;999.90;;;;;;;2.59;63.55;100804.06;5019050;27;97192;-69
2022/02/03 16:51:42;;;;;;;1999.90;999.90;;;;;;;2.52;63.85;100796.69;4936607;28;98910;-69
2022/02/03 16:54:13;;;;;;;1999.90;999.90;;;;;;;2.53;63.32;100793.25;4901491;28;101327;-70
2022/02/03 16:56:43;;;;;;;1999.90;999.90;;;;;;;2.55;63.44;100789.88;4980648;27;96908;-70
2022/02/03 16:59:11;;;;;;;1999.90;999.90;;;;;;;2.55;63.78;100778.47;5018352;27;97822;-69